Time;durP1;ratioP1;P1;durP2;ratioP2;P2;SDS_P1;SDS_P2;PMS_P1;PMS_P2;Temp;Humidity;BMP_temperature;BMP_pressure;BME280_temperature;BME280_humidity;BME280_pressure;Samples;Min_cycle;Max_cycle;Signal;HPM_P1;HPM_P2
2021/06/28 00:01:55;;;;;;;5.78;4.25;;;18.00;99.90;;;;;;5088662;28;20539;-77
2021/06/28 00:04:21;;;;;;;5.95;3.80;;;18.00;99.90;;;;;;5088301;28;20051;-77
2021/06/28 00:06:46;;;;;;;9.20;4.55;;;17.90;99.90;;;;;;5088346;28;20023;-77
2021/06/28 00:09:12;;;;;;;4.90;3.85;;;17.90;99.90;;;;;;5088040;28;20048;-77
2021/06/28 00:11:37;;;;;;;8.13;4.30;;;17.80;99.90;;;;;;5088538;28;20047;-77
2021/06/28 00:14:03;;;;;;;5.78;4.30;;;17.80;99.90;;;;;;5088671;28;20027;-77
2021/06/28 00:16:28;;;;;;;5.28;3.72;;;17.80;99.90;;;;;;5088435;28;20032;-77
2021/06/28 00:18:55;;;;;;;6.32;4.30;;;17.80;99.90;;;;;;5088602;28;20024;-77
2021/06/28 00:21:21;;;;;;;6.78;4.53;;;17.70;99.90;;;;;;5088429;28;20016;-77
2021/06/28 00:23:47;;;;;;;5.30;4.00;;;17.70;99.90;;;;;;5088339;28;20102;-77
2021/06/28 00:26:12;;;;;;;7.25;4.30;;;17.70;99.90;;;;;;5088321;28;20028;-78
2021/06/28 00:28:38;;;;;;;8.52;4.13;;;17.60;99.90;;;;;;5088395;28;20021;-77
2021/06/28 00:31:03;;;;;;;5.85;4.32;;;17.60;99.90;;;;;;5088219;28;20012;-77
2021/06/28 00:33:30;;;;;;;6.53;4.30;;;17.60;99.90;;;;;;5088095;28;20475;-77
2021/06/28 00:35:55;;;;;;;5.93;4.78;;;17.60;99.90;;;;;;5088551;28;20124;-77
2021/06/28 00:38:21;;;;;;;6.00;4.60;;;17.60;99.90;;;;;;5088389;28;20099;-77
2021/06/28 00:40:47;;;;;;;7.38;4.47;;;17.50;99.90;;;;;;5088322;28;20028;-77
2021/06/28 00:43:13;;;;;;;6.22;3.85;;;17.50;99.90;;;;;;5088183;28;20024;-77
2021/06/28 00:45:41;;;;;;;7.70;4.78;;;17.50;99.90;;;;;;5088170;28;20377;-77
2021/06/28 00:48:12;;;;;;;7.63;4.57;;;17.40;99.90;;;;;;5088271;28;20020;-77
2021/06/28 00:50:41;;;;;;;4.32;3.75;;;17.50;99.90;;;;;;5088323;28;20020;-77
2021/06/28 00:53:09;;;;;;;5.10;4.40;;;17.40;99.90;;;;;;5088078;28;20161;-77
2021/06/28 00:55:36;;;;;;;5.93;4.20;;;17.30;99.90;;;;;;5087997;28;20020;-77
2021/06/28 00:58:02;;;;;;;6.60;4.22;;;17.30;99.90;;;;;;5087966;28;20584;-77
2021/06/28 01:00:28;;;;;;;5.40;3.83;;;17.30;99.90;;;;;;5088116;28;20063;-78
2021/06/28 01:02:55;;;;;;;6.93;4.22;;;17.30;99.90;;;;;;5088245;28;20204;-77
2021/06/28 01:05:24;;;;;;;6.82;4.30;;;17.30;99.90;;;;;;5090293;28;20414;-77
2021/06/28 01:07:50;;;;;;;6.35;4.50;;;17.30;99.90;;;;;;5091456;28;20048;-78
2021/06/28 01:10:18;;;;;;;7.97;4.30;;;17.30;99.90;;;;;;5091509;28;20473;-77
2021/06/28 01:12:44;;;;;;;5.45;4.10;;;17.20;99.90;;;;;;5091620;28;20028;-77
2021/06/28 01:15:10;;;;;;;9.77;4.45;;;17.20;99.90;;;;;;5091490;28;20108;-77
2021/06/28 01:17:37;;;;;;;7.03;4.35;;;17.20;99.90;;;;;;5091241;28;20090;-77
2021/06/28 01:20:10;;;;;;;7.00;4.43;;;17.20;99.90;;;;;;5091671;28;20028;-77
2021/06/28 01:22:39;;;;;;;7.43;4.15;;;17.20;99.90;;;;;;5091220;28;20135;-77
2021/06/28 01:25:10;;;;;;;6.63;4.38;;;17.10;99.90;;;;;;5091225;28;20027;-77
2021/06/28 01:27:36;;;;;;;5.00;4.32;;;17.10;99.90;;;;;;5091019;28;20035;-77
2021/06/28 01:30:06;;;;;;;5.85;4.53;;;17.10;99.90;;;;;;5091386;28;20024;-77
2021/06/28 01:32:32;;;;;;;5.70;4.65;;;17.10;99.90;;;;;;5091145;28;20031;-77
2021/06/28 01:34:59;;;;;;;5.50;4.20;;;17.10;99.90;;;;;;5091234;28;20028;-77
2021/06/28 01:37:27;;;;;;;5.93;4.72;;;17.10;99.90;;;;;;5090932;28;20103;-77
2021/06/28 01:39:55;;;;;;;6.30;4.63;;;17.10;99.90;;;;;;5090968;28;20070;-78
2021/06/28 01:42:21;;;;;;;6.75;4.28;;;17.00;99.90;;;;;;5090929;28;20024;-77
2021/06/28 01:44:47;;;;;;;8.25;4.55;;;17.00;99.90;;;;;;5091094;28;20036;-77
2021/06/28 01:47:12;;;;;;;6.13;4.80;;;17.00;99.90;;;;;;5090847;28;20074;-78
2021/06/28 01:49:38;;;;;;;7.03;4.63;;;16.90;99.90;;;;;;5090765;28;20554;-77
2021/06/28 01:52:05;;;;;;;11.05;5.00;;;16.90;99.90;;;;;;5091112;28;20019;-77
2021/06/28 01:54:31;;;;;;;7.28;4.50;;;16.90;99.90;;;;;;5090487;28;20482;-77
2021/06/28 01:56:58;;;;;;;9.30;4.90;;;16.90;99.90;;;;;;5090900;28;20035;-77
2021/06/28 01:59:32;;;;;;;5.15;4.57;;;16.90;99.90;;;;;;5090809;28;20063;-77
2021/06/28 02:01:59;;;;;;;6.30;4.82;;;16.90;99.90;;;;;;5090524;28;20032;-77
2021/06/28 02:04:26;;;;;;;6.60;4.82;;;16.90;99.90;;;;;;5090313;28;20082;-78
2021/06/28 02:06:52;;;;;;;6.07;4.25;;;16.90;99.90;;;;;;5090404;28;20127;-78
2021/06/28 02:09:18;;;;;;;5.95;4.72;;;16.80;99.90;;;;;;5090178;28;20051;-77
2021/06/28 02:11:44;;;;;;;6.97;4.70;;;16.80;99.90;;;;;;5090062;28;20428;-77
2021/06/28 02:14:09;;;;;;;8.65;4.80;;;16.70;99.90;;;;;;5090230;28;20078;-77
2021/06/28 02:16:35;;;;;;;6.32;4.70;;;16.70;99.90;;;;;;5089218;28;20039;-77
2021/06/28 02:19:00;;;;;;;5.72;4.47;;;16.70;99.90;;;;;;5082743;28;20107;-77
2021/06/28 02:21:26;;;;;;;6.57;4.78;;;16.70;99.90;;;;;;5083361;28;20444;-77
2021/06/28 02:23:52;;;;;;;7.22;4.40;;;16.70;99.90;;;;;;5090111;28;20043;-77
2021/06/28 02:26:17;;;;;;;7.22;5.15;;;16.60;99.90;;;;;;5089450;28;20036;-77
2021/06/28 02:28:48;;;;;;;5.72;4.60;;;16.60;99.90;;;;;;5090149;28;20343;-77
2021/06/28 02:31:19;;;;;;;9.88;4.95;;;16.60;99.90;;;;;;5090081;28;20028;-77
2021/06/28 02:33:47;;;;;;;6.32;4.65;;;16.60;99.90;;;;;;5090171;28;20020;-78
2021/06/28 02:36:13;;;;;;;6.85;4.85;;;16.50;99.90;;;;;;5090070;28;20684;-77
2021/06/28 02:38:40;;;;;;;7.60;4.60;;;16.50;99.90;;;;;;5089798;28;20032;-77
2021/06/28 02:41:07;;;;;;;7.88;5.25;;;16.50;99.90;;;;;;5089902;28;20034;-77
2021/06/28 02:43:33;;;;;;;6.65;5.30;;;16.50;99.90;;;;;;5089610;28;20028;-77
2021/06/28 02:45:59;;;;;;;8.57;4.53;;;16.50;99.90;;;;;;5089739;28;20024;-77
2021/06/28 02:48:25;;;;;;;7.35;5.03;;;16.50;99.90;;;;;;5089558;28;20509;-78
2021/06/28 02:50:51;;;;;;;5.63;4.97;;;16.50;99.90;;;;;;5089666;28;20463;-77
2021/06/28 02:53:17;;;;;;;7.60;5.20;;;16.50;99.90;;;;;;5089353;28;20473;-78
2021/06/28 02:55:47;;;;;;;6.95;5.13;;;16.40;99.90;;;;;;5089634;28;20510;-78
2021/06/28 02:58:15;;;;;;;7.28;4.68;;;16.40;99.90;;;;;;5089523;28;20024;-77
2021/06/28 03:00:41;;;;;;;6.68;4.85;;;16.40;99.90;;;;;;5089427;28;20024;-77
2021/06/28 03:03:07;;;;;;;5.75;4.80;;;16.40;99.90;;;;;;5089407;28;20405;-77
2021/06/28 03:05:32;;;;;;;6.90;5.00;;;16.30;99.90;;;;;;5089147;28;20034;-77
2021/06/28 03:07:58;;;;;;;7.05;5.22;;;16.30;99.90;;;;;;5088896;28;20561;-77
2021/06/28 03:10:23;;;;;;;7.25;5.00;;;16.30;99.90;;;;;;5089072;28;20026;-78
2021/06/28 03:12:49;;;;;;;7.57;5.45;;;16.30;99.90;;;;;;5089405;28;20027;-77
2021/06/28 03:15:17;;;;;;;8.70;5.38;;;16.30;99.90;;;;;;5089088;28;20032;-77
2021/06/28 03:17:43;;;;;;;10.15;5.38;;;16.30;99.90;;;;;;5088973;28;20185;-77
2021/06/28 03:20:12;;;;;;;10.40;5.55;;;16.30;99.90;;;;;;5089270;28;20027;-78
2021/06/28 03:22:39;;;;;;;8.77;5.68;;;16.30;99.90;;;;;;5088781;28;20533;-77
2021/06/28 03:25:07;;;;;;;8.95;4.90;;;16.30;99.90;;;;;;5089123;28;20032;-77
2021/06/28 03:27:32;;;;;;;6.53;5.15;;;16.30;99.90;;;;;;5088579;28;20365;-78
2021/06/28 03:29:58;;;;;;;7.78;5.20;;;16.30;99.90;;;;;;5089119;28;20035;-77
2021/06/28 03:32:23;;;;;;;7.65;5.40;;;16.30;99.90;;;;;;5088760;28;20044;-77
2021/06/28 03:34:49;;;;;;;8.23;5.63;;;16.30;99.90;;;;;;5089098;28;20067;-77
2021/06/28 03:37:14;;;;;;;7.30;5.63;;;16.30;99.90;;;;;;5088841;28;20039;-78
2021/06/28 03:39:40;;;;;;;7.53;5.75;;;16.30;99.90;;;;;;5088928;28;20028;-77
2021/06/28 03:42:06;;;;;;;7.25;5.20;;;16.30;99.90;;;;;;5089004;28;20134;-78
2021/06/28 03:44:31;;;;;;;6.90;5.57;;;16.30;99.90;;;;;;5088860;28;20482;-77
2021/06/28 03:46:57;;;;;;;7.28;5.43;;;16.30;99.90;;;;;;5088663;28;20024;-78
2021/06/28 03:49:22;;;;;;;7.72;5.45;;;16.30;99.90;;;;;;5088665;28;20012;-77
2021/06/28 03:51:48;;;;;;;8.20;5.35;;;16.30;99.90;;;;;;5088508;28;20028;-78
2021/06/28 03:54:13;;;;;;;8.43;5.68;;;16.40;99.90;;;;;;5088703;28;20012;-77
2021/06/28 03:56:39;;;;;;;11.23;6.18;;;16.40;99.90;;;;;;5088407;28;20028;-78
2021/06/28 03:59:04;;;;;;;8.88;6.18;;;16.40;99.90;;;;;;5088667;28;20024;-77
2021/06/28 04:01:30;;;;;;;7.47;5.57;;;16.40;99.90;;;;;;5088531;28;20103;-78
2021/06/28 04:03:55;;;;;;;11.32;5.80;;;16.50;99.90;;;;;;5088643;28;20085;-78
2021/06/28 04:06:22;;;;;;;9.63;5.78;;;16.50;99.90;;;;;;5088330;28;20055;-77
2021/06/28 04:08:48;;;;;;;6.93;5.57;;;16.60;99.90;;;;;;5088420;28;20044;-78
2021/06/28 04:11:13;;;;;;;6.75;5.60;;;16.60;99.90;;;;;;5088510;28;20371;-77
2021/06/28 04:13:39;;;;;;;8.65;6.00;;;16.60;99.90;;;;;;5088290;28;20609;-78
2021/06/28 04:16:05;;;;;;;7.75;5.43;;;16.70;99.90;;;;;;5088341;28;20021;-77
2021/06/28 04:18:31;;;;;;;8.30;6.20;;;16.70;99.90;;;;;;5088423;28;20047;-78
2021/06/28 04:20:56;;;;;;;9.20;5.28;;;16.80;99.90;;;;;;5088765;28;20463;-78
2021/06/28 04:23:22;;;;;;;7.90;6.07;;;16.80;99.90;;;;;;5088368;28;20099;-77
2021/06/28 04:25:47;;;;;;;8.32;5.85;;;16.90;99.90;;;;;;5088444;28;20052;-78
2021/06/28 04:28:13;;;;;;;9.18;5.90;;;17.00;99.90;;;;;;5088316;28;20348;-78
2021/06/28 04:30:39;;;;;;;10.70;6.60;;;17.10;99.90;;;;;;5088260;28;20021;-78
2021/06/28 04:33:05;;;;;;;8.85;6.18;;;17.10;99.90;;;;;;5088372;28;20042;-78
2021/06/28 04:35:31;;;;;;;8.70;6.38;;;17.20;99.90;;;;;;5088184;28;20060;-78
2021/06/28 04:37:57;;;;;;;11.65;7.47;;;17.30;99.90;;;;;;5088412;28;20048;-77
2021/06/28 04:40:28;;;;;;;9.73;6.68;;;17.40;99.90;;;;;;5090872;28;20020;-78
2021/06/28 04:42:54;;;;;;;9.80;6.68;;;17.40;99.90;;;;;;5092252;28;20047;-78
2021/06/28 04:45:22;;;;;;;10.35;7.03;;;17.50;99.90;;;;;;5092219;28;20043;-78
2021/06/28 04:47:48;;;;;;;10.23;7.13;;;17.50;99.90;;;;;;5092017;28;20024;-78
2021/06/28 04:50:15;;;;;;;9.15;7.05;;;17.60;99.90;;;;;;5091929;28;20028;-78
2021/06/28 04:52:41;;;;;;;9.90;6.88;;;17.70;99.90;;;;;;5091810;28;20437;-78
2021/06/28 04:55:09;;;;;;;13.50;7.15;;;17.80;99.90;;;;;;5091885;28;20506;-78
2021/06/28 04:57:35;;;;;;;8.50;6.03;;;17.90;99.90;;;;;;5091783;28;20028;-78
2021/06/28 05:00:02;;;;;;;13.20;6.53;;;18.00;99.90;;;;;;5091957;28;20027;-78
2021/06/28 05:02:27;;;;;;;12.50;6.72;;;18.00;99.90;;;;;;5091703;28;20043;-78
2021/06/28 05:04:53;;;;;;;9.13;6.10;;;18.10;99.90;;;;;;5091634;28;20024;-78
2021/06/28 05:07:18;;;;;;;9.93;6.68;;;18.20;99.90;;;;;;5091409;28;20024;-79
2021/06/28 05:09:45;;;;;;;8.85;6.38;;;18.20;99.90;;;;;;5091423;28;20428;-77
2021/06/28 05:12:12;;;;;;;8.88;5.95;;;18.30;99.90;;;;;;5091429;28;20070;-78
2021/06/28 05:14:39;;;;;;;9.98;6.43;;;18.40;99.90;;;;;;5091346;28;20031;-78
2021/06/28 05:17:05;;;;;;;9.25;6.40;;;18.40;99.90;;;;;;5091670;28;20050;-77
2021/06/28 05:19:31;;;;;;;8.70;5.80;;;18.50;99.90;;;;;;5091340;28;20481;-78
2021/06/28 05:21:56;;;;;;;12.57;6.25;;;18.60;99.90;;;;;;5091554;28;20027;-77
2021/06/28 05:24:22;;;;;;;8.52;6.50;;;18.60;99.90;;;;;;5091214;28;20405;-77
2021/06/28 05:26:47;;;;;;;13.77;5.68;;;18.70;99.90;;;;;;5091312;28;20042;-78
2021/06/28 05:29:13;;;;;;;10.48;6.43;;;18.80;99.90;;;;;;5091313;28;20051;-78
2021/06/28 05:31:38;;;;;;;9.27;5.80;;;18.90;99.90;;;;;;5091070;28;20028;-78
2021/06/28 05:34:04;;;;;;;7.95;5.93;;;19.00;99.90;;;;;;5091172;28;20067;-78
2021/06/28 05:36:29;;;;;;;8.77;5.43;;;19.00;99.90;;;;;;5091194;28;20119;-78
2021/06/28 05:38:55;;;;;;;9.70;4.93;;;19.20;99.90;;;;;;5090863;28;20027;-78
2021/06/28 05:41:21;;;;;;;10.45;5.30;;;19.20;99.90;;;;;;5091154;28;20031;-78
2021/06/28 05:43:46;;;;;;;8.55;5.55;;;19.30;99.90;;;;;;5090885;28;20424;-78
2021/06/28 05:46:12;;;;;;;7.85;4.90;;;19.40;99.90;;;;;;5091046;28;20019;-77
2021/06/28 05:48:38;;;;;;;7.95;4.85;;;19.50;99.90;;;;;;5090736;28;20058;-78
2021/06/28 05:51:03;;;;;;;6.97;4.78;;;19.60;99.90;;;;;;5091019;28;20020;-78
2021/06/28 05:53:29;;;;;;;5.90;4.32;;;19.70;99.90;;;;;;5090402;28;20061;-78
2021/06/28 05:55:58;;;;;;;6.40;4.53;;;19.70;99.90;;;;;;5091175;28;20027;-78
2021/06/28 05:58:25;;;;;;;8.52;4.28;;;19.80;99.90;;;;;;5092036;28;20688;-78
2021/06/28 06:00:51;;;;;;;8.52;4.40;;;19.90;99.90;;;;;;5094350;28;20035;-78
2021/06/28 06:03:17;;;;;;;5.18;4.07;;;19.90;99.90;;;;;;5094476;28;20048;-78
2021/06/28 06:05:43;;;;;;;5.15;3.72;;;20.00;99.90;;;;;;5081911;28;20060;-78
2021/06/28 06:08:08;;;;;;;5.82;4.03;;;20.10;99.90;;;;;;5069953;28;20114;-78
2021/06/28 06:10:34;;;;;;;7.45;3.95;;;20.20;99.90;;;;;;5071151;28;20028;-77
2021/06/28 06:12:59;;;;;;;6.32;4.43;;;20.30;99.90;;;;;;5072886;28;20565;-79
2021/06/28 06:15:25;;;;;;;6.95;3.60;;;20.30;99.30;;;;;;5075707;28;20039;-78
2021/06/28 06:17:50;;;;;;;5.70;3.80;;;20.40;98.20;;;;;;5086988;28;20024;-78
2021/06/28 06:20:16;;;;;;;7.57;3.58;;;20.50;96.90;;;;;;5090291;28;20023;-78
2021/06/28 06:22:42;;;;;;;5.75;3.97;;;20.60;96.60;;;;;;5089805;28;20570;-78
2021/06/28 06:25:09;;;;;;;5.88;3.45;;;20.60;96.30;;;;;;5090346;28;20012;-78
2021/06/28 06:27:35;;;;;;;13.40;3.80;;;20.70;96.10;;;;;;5090264;28;20028;-78
2021/06/28 06:30:01;;;;;;;4.88;3.83;;;20.80;94.80;;;;;;5090197;28;20024;-77
2021/06/28 06:32:26;;;;;;;4.55;3.70;;;20.90;94.40;;;;;;5089982;28;20024;-78
2021/06/28 06:34:52;;;;;;;4.82;3.65;;;21.00;93.10;;;;;;5089982;28;20046;-77
2021/06/28 06:37:19;;;;;;;4.88;3.53;;;21.20;90.90;;;;;;5089742;28;20028;-77
2021/06/28 06:39:44;;;;;;;7.90;3.95;;;21.30;89.90;;;;;;5090223;28;20523;-77
2021/06/28 06:42:10;;;;;;;13.75;4.38;;;21.40;90.00;;;;;;5089882;28;20032;-77
2021/06/28 06:44:35;;;;;;;4.75;3.60;;;21.50;89.10;;;;;;5089726;28;20088;-78
2021/06/28 06:47:01;;;;;;;5.60;4.18;;;21.50;90.60;;;;;;5089828;28;20032;-78
2021/06/28 06:49:26;;;;;;;6.80;3.85;;;21.40;91.10;;;;;;5089781;28;20081;-77
2021/06/28 06:51:52;;;;;;;4.97;4.10;;;21.40;90.40;;;;;;5089601;28;20024;-78
2021/06/28 06:54:18;;;;;;;5.80;3.80;;;21.50;90.60;;;;;;5089628;28;20425;-78
2021/06/28 06:56:45;;;;;;;5.65;4.20;;;21.50;91.50;;;;;;5089319;28;20518;-78
2021/06/28 06:59:10;;;;;;;18.45;4.10;;;21.50;91.30;;;;;;5089418;28;20077;-78
2021/06/28 07:01:38;;;;;;;5.22;3.75;;;21.60;92.00;;;;;;5089116;28;20020;-79
2021/06/28 07:04:04;;;;;;;5.72;4.40;;;21.60;91.60;;;;;;5089702;28;20024;-78
2021/06/28 07:06:30;;;;;;;4.40;3.80;;;21.70;91.00;;;;;;5089233;28;20546;-78
2021/06/28 07:08:56;;;;;;;6.65;3.55;;;21.70;91.20;;;;;;5089385;28;20060;-78
2021/06/28 07:11:24;;;;;;;5.35;4.28;;;21.90;86.80;;;;;;5089613;28;20020;-77
2021/06/28 07:13:50;;;;;;;5.72;4.25;;;22.00;86.60;;;;;;5089625;28;20016;-78
2021/06/28 07:16:17;;;;;;;6.63;4.43;;;22.20;84.70;;;;;;5089352;28;20098;-78
2021/06/28 07:18:43;;;;;;;5.55;4.78;;;22.30;84.10;;;;;;5089148;28;20051;-78
2021/06/28 07:21:09;;;;;;;5.35;4.28;;;22.40;83.20;;;;;;5089076;28;20024;-79
2021/06/28 07:23:35;;;;;;;6.00;4.65;;;22.40;83.40;;;;;;5088895;28;20517;-78
2021/06/28 07:26:01;;;;;;;9.00;4.47;;;22.50;84.20;;;;;;5089214;28;20031;-78
2021/06/28 07:28:28;;;;;;;4.70;3.90;;;22.60;80.10;;;;;;5088888;28;20475;-79
2021/06/28 07:30:57;;;;;;;4.93;4.25;;;22.60;80.00;;;;;;5088762;28;20027;-78
2021/06/28 07:33:24;;;;;;;5.75;4.35;;;22.70;85.90;;;;;;5089058;28;20020;-79
2021/06/28 07:35:49;;;;;;;5.50;4.45;;;22.70;82.40;;;;;;5088818;28;20099;-79
2021/06/28 07:38:15;;;;;;;8.52;4.25;;;22.70;79.50;;;;;;5088863;28;20608;-79
2021/06/28 07:40:40;;;;;;;6.25;4.85;;;22.80;82.50;;;;;;5088656;28;20632;-77
2021/06/28 07:43:06;;;;;;;10.15;4.10;;;22.90;81.10;;;;;;5089060;28;20625;-78
2021/06/28 07:45:31;;;;;;;6.97;4.22;;;22.90;78.20;;;;;;5088768;28;20030;-78
2021/06/28 07:47:58;;;;;;;6.00;4.15;;;23.00;78.20;;;;;;5088879;28;20035;-78
2021/06/28 07:50:23;;;;;;;4.32;3.63;;;23.20;74.80;;;;;;5088912;28;20530;-79
2021/06/28 07:52:49;;;;;;;3.65;3.22;;;23.20;76.30;;;;;;5088549;28;20115;-78
2021/06/28 07:55:14;;;;;;;4.57;3.88;;;23.40;70.60;;;;;;5089018;28;20099;-78
2021/06/28 07:57:41;;;;;;;4.47;3.70;;;23.50;68.80;;;;;;5088682;28;20039;-78
2021/06/28 08:00:13;;;;;;;7.00;4.00;;;23.50;71.10;;;;;;5088654;28;20410;-79
2021/06/28 08:02:38;;;;;;;5.35;4.15;;;23.60;70.60;;;;;;5088206;28;20107;-78
2021/06/28 08:05:06;;;;;;;5.45;3.85;;;23.50;72.50;;;;;;5088596;28;20111;-78
2021/06/28 08:07:31;;;;;;;4.53;3.72;;;23.60;72.80;;;;;;5088206;28;20024;-78
2021/06/28 08:09:57;;;;;;;6.15;4.20;;;23.70;71.40;;;;;;5088671;28;20036;-79
2021/06/28 08:12:22;;;;;;;3.88;3.55;;;23.70;69.90;;;;;;5088666;28;20032;-78
2021/06/28 08:14:48;;;;;;;3.35;3.05;;;23.80;67.50;;;;;;5090136;28;20036;-79
2021/06/28 08:17:13;;;;;;;2.80;2.50;;;23.90;62.50;;;;;;5092523;28;20493;-79
2021/06/28 08:19:42;;;;;;;4.03;3.25;;;24.00;61.20;;;;;;5092305;28;20024;-78
2021/06/28 08:22:09;;;;;;;4.88;4.30;;;23.90;65.40;;;;;;5073917;28;20025;-79
2021/06/28 08:24:34;;;;;;;5.47;3.85;;;23.90;65.30;;;;;;5088593;28;20486;-78
2021/06/28 08:27:00;;;;;;;3.47;3.17;;;24.00;69.50;;;;;;5092601;28;20059;-78
2021/06/28 08:29:25;;;;;;;5.13;3.60;;;24.10;68.40;;;;;;5092468;28;20459;-78
2021/06/28 08:31:51;;;;;;;3.88;3.47;;;24.20;73.00;;;;;;5092205;28;20059;-79
2021/06/28 08:34:16;;;;;;;4.07;3.67;;;24.30;67.50;;;;;;5092416;28;20409;-79
2021/06/28 08:36:46;;;;;;;4.03;3.47;;;24.30;65.40;;;;;;5092085;28;20072;-78
2021/06/28 08:39:14;;;;;;;4.85;3.42;;;24.40;66.80;;;;;;5092353;28;20024;-78
2021/06/28 08:41:44;;;;;;;4.43;3.30;;;24.50;66.40;;;;;;5092128;28;20044;-78
2021/06/28 08:44:12;;;;;;;5.40;3.30;;;24.60;62.50;;;;;;5092346;28;20020;-78
2021/06/28 08:46:38;;;;;;;7.82;3.60;;;24.80;63.60;;;;;;5092296;28;20032;-78
2021/06/28 08:49:04;;;;;;;3.78;3.38;;;25.00;61.20;;;;;;5092060;28;20036;-78
2021/06/28 08:51:30;;;;;;;7.00;3.20;;;25.10;59.30;;;;;;5091900;28;20024;-78
2021/06/28 08:53:57;;;;;;;5.47;3.47;;;25.00;62.00;;;;;;5091808;28;20093;-78
2021/06/28 08:56:23;;;;;;;4.57;3.75;;;25.00;67.10;;;;;;5091981;28;20024;-78
2021/06/28 08:58:48;;;;;;;4.30;3.90;;;25.10;62.50;;;;;;5091935;28;20030;-78
2021/06/28 09:01:14;;;;;;;5.03;4.07;;;25.40;59.70;;;;;;5091906;28;20103;-79
2021/06/28 09:03:40;;;;;;;4.03;3.40;;;25.50;59.50;;;;;;5091761;28;20020;-78
2021/06/28 09:06:06;;;;;;;3.65;3.33;;;25.60;61.20;;;;;;5091695;28;20073;-79
2021/06/28 09:08:36;;;;;;;4.00;3.28;;;25.70;63.30;;;;;;5090972;28;20097;-79
2021/06/28 09:11:03;;;;;;;8.70;3.20;;;25.90;63.30;;;;;;5090503;28;20024;-79
2021/06/28 09:13:40;;;;;;;3.78;3.22;;;25.90;62.50;;;;;;5090280;28;20020;-79
2021/06/28 09:16:31;;;;;;;3.75;3.45;;;25.90;62.70;;;;;;5090336;28;20027;-79
2021/06/28 09:19:09;;;;;;;6.68;3.15;;;25.80;58.90;;;;;;5089871;28;20028;-79
2021/06/28 09:21:42;;;;;;;4.20;3.80;;;25.70;63.90;;;;;;5090339;28;20036;-79
2021/06/28 09:24:36;;;;;;;6.30;3.13;;;25.70;60.20;;;;;;5090575;28;20043;-79
2021/06/28 09:27:10;;;;;;;6.85;3.85;;;25.70;64.00;;;;;;5089976;28;20040;-80
2021/06/28 09:29:39;;;;;;;3.53;3.22;;;25.70;61.90;;;;;;5090073;28;20016;-79
2021/06/28 09:32:10;;;;;;;5.30;3.72;;;25.90;61.40;;;;;;5090228;28;20047;-79
2021/06/28 09:34:37;;;;;;;4.47;3.90;;;25.90;58.70;;;;;;5076816;28;20110;-79
2021/06/28 09:37:03;;;;;;;3.97;3.55;;;26.30;57.20;;;;;;5089766;28;20024;-79
2021/06/28 09:39:36;;;;;;;3.75;3.00;;;26.30;56.50;;;;;;5089930;28;20103;-79
2021/06/28 09:42:08;;;;;;;8.00;3.55;;;26.20;58.70;;;;;;5090006;28;20478;-79
2021/06/28 09:44:37;;;;;;;3.13;2.85;;;26.20;56.40;;;;;;5089917;28;20035;-79
2021/06/28 09:47:13;;;;;;;3.45;3.15;;;26.20;58.80;;;;;;5089684;28;20036;-79
2021/06/28 09:49:42;;;;;;;6.53;3.90;;;26.00;58.90;;;;;;5089684;28;20419;-79
2021/06/28 09:52:08;;;;;;;7.97;3.75;;;26.10;56.90;;;;;;5089863;28;20467;-79
2021/06/28 09:54:39;;;;;;;4.25;3.58;;;26.10;56.10;;;;;;5089708;28;20035;-80
2021/06/28 09:57:07;;;;;;;5.13;4.13;;;26.30;56.30;;;;;;5089599;28;20024;-79
2021/06/28 09:59:36;;;;;;;4.53;3.85;;;26.30;54.70;;;;;;5089655;28;20028;-80
2021/06/28 10:02:21;;;;;;;4.50;3.03;;;26.30;55.90;;;;;;5089525;28;20382;-80
2021/06/28 10:05:01;;;;;;;5.70;3.63;;;26.10;58.40;;;;;;5089509;28;20031;-80
2021/06/28 10:07:43;;;;;;;3.95;3.53;;;26.00;63.60;;;;;;4631270;28;30269520;-80
2021/06/28 10:10:10;;;;;;;4.07;3.63;;;26.00;59.90;;;;;;5090232;28;20225;-80
2021/06/28 10:12:37;;;;;;;5.07;3.72;;;26.10;55.00;;;;;;5090490;28;20428;-80
2021/06/28 10:15:08;;;;;;;4.95;3.95;;;26.30;56.90;;;;;;5090357;28;20016;-80
2021/06/28 10:17:34;;;;;;;4.38;3.80;;;26.60;53.80;;;;;;5090232;28;20024;-80
2021/06/28 10:20:00;;;;;;;4.47;3.35;;;26.70;55.50;;;;;;5090142;28;20227;-80
2021/06/28 10:22:25;;;;;;;4.10;3.63;;;26.80;52.30;;;;;;5090265;28;20398;-80
2021/06/28 10:24:51;;;;;;;6.25;3.22;;;26.90;55.80;;;;;;5090229;28;20096;-79
2021/06/28 10:27:18;;;;;;;5.53;3.42;;;26.90;52.50;;;;;;5090145;28;20062;-80
2021/06/28 10:29:44;;;;;;;6.15;3.88;;;27.20;50.90;;;;;;5090160;28;20028;-80
2021/06/28 10:32:12;;;;;;;4.72;4.13;;;27.30;53.00;;;;;;5089906;28;20020;-80
2021/06/28 10:34:39;;;;;;;4.65;4.03;;;27.40;51.50;;;;;;5089967;28;20028;-80
2021/06/28 10:37:31;;;;;;;4.72;3.72;;;27.50;51.40;;;;;;5088915;28;20497;-79
2021/06/28 10:40:06;;;;;;;5.20;3.35;;;27.60;51.30;;;;;;5090068;28;20028;-80
2021/06/28 10:42:35;;;;;;;5.22;3.97;;;27.70;52.00;;;;;;5089892;28;20024;-80
2021/06/28 10:45:01;;;;;;;8.20;3.83;;;27.60;54.80;;;;;;5089724;28;20020;-80
2021/06/28 10:47:28;;;;;;;3.75;3.33;;;27.70;53.60;;;;;;5089794;28;20108;-80
2021/06/28 10:49:54;;;;;;;4.22;3.78;;;27.70;54.40;;;;;;5089824;28;20051;-79
2021/06/28 10:52:45;;;;;;;3.95;3.40;;;27.70;55.60;;;;;;5095093;28;20069;-78
2021/06/28 10:55:17;;;;;;;3.10;2.80;;;28.10;55.60;;;;;;5089887;28;20020;-80
2021/06/28 10:57:42;;;;;;;4.18;3.30;;;28.10;56.30;;;;;;5089432;28;20109;-80
2021/06/28 11:00:09;;;;;;;3.78;3.38;;;28.10;53.90;;;;;;5089570;28;20044;-80
2021/06/28 11:02:39;;;;;;;3.75;3.28;;;28.20;54.90;;;;;;5089442;28;20124;-81
2021/06/28 11:05:07;;;;;;;6.38;2.95;;;28.50;51.70;;;;;;5089334;28;20027;-80
2021/06/28 11:07:49;;;;;;;2.90;2.50;;;28.80;52.30;;;;;;5087902;28;20035;-80
2021/06/28 11:10:35;;;;;;;3.00;2.65;;;28.60;53.30;;;;;;5089379;28;20054;-80
2021/06/28 11:13:28;;;;;;;2.70;2.50;;;28.50;55.00;;;;;;5089230;28;20474;-80
2021/06/28 11:15:53;;;;;;;3.63;3.25;;;28.10;55.50;;;;;;5089213;28;20032;-79
2021/06/28 11:18:30;;;;;;;4.20;2.92;;;27.90;53.10;;;;;;5089098;28;20028;-80
2021/06/28 11:20:55;;;;;;;3.60;3.30;;;28.10;53.80;;;;;;5088946;28;20506;-80
2021/06/28 11:23:21;;;;;;;3.97;2.78;;;28.10;53.90;;;;;;5089416;28;20020;-80
2021/06/28 11:25:51;;;;;;;3.80;2.58;;;28.10;55.30;;;;;;5089023;28;20077;-80
2021/06/28 11:28:24;;;;;;;3.28;2.97;;;28.30;54.30;;;;;;5089270;28;20034;-80
2021/06/28 11:31:13;;;;;;;2.88;2.67;;;28.60;53.50;;;;;;5089003;28;20024;-80
2021/06/28 11:33:47;;;;;;;7.85;3.17;;;28.70;51.90;;;;;;5089397;28;20028;-80
2021/06/28 11:36:22;;;;;;;2.60;2.38;;;28.80;52.20;;;;;;5088923;28;20031;-80
2021/06/28 11:38:48;;;;;;;2.53;2.33;;;28.80;53.80;;;;;;5088864;28;20031;-80
2021/06/28 11:41:17;;;;;;;2.47;2.28;;;28.90;53.40;;;;;;5089017;28;20047;-80
2021/06/28 11:43:49;;;;;;;2.80;2.60;;;28.90;53.00;;;;;;5088660;28;20016;-81
2021/06/28 11:46:15;;;;;;;2.70;2.50;;;29.50;48.20;;;;;;5089002;28;20107;-80
2021/06/28 11:48:49;;;;;;;6.05;2.80;;;30.00;48.30;;;;;;5088644;28;20016;-80
2021/06/28 11:51:23;;;;;;;2.70;2.50;;;30.40;44.10;;;;;;5088857;28;20020;-80
2021/06/28 11:54:16;;;;;;;3.25;2.75;;;30.80;44.50;;;;;;5088516;28;20466;-80
2021/06/28 11:56:46;;;;;;;6.65;3.22;;;31.30;40.70;;;;;;5088745;28;20028;-79
2021/06/28 11:59:17;;;;;;;4.78;2.40;;;31.50;39.50;;;;;;5088975;28;20012;-81
2021/06/28 12:01:53;;;;;;;;;;;31.50;42.60;;;;;;5089012;28;20029;-80
2021/06/28 12:04:21;;;;;;;3.05;2.67;;;31.30;40.40;;;;;;5088587;28;19911;-81
2021/06/28 12:06:48;;;;;;;5.70;3.00;;;31.20;44.40;;;;;;5088248;28;20398;-80
2021/06/28 12:09:20;;;;;;;3.03;2.75;;;31.20;44.50;;;;;;5088506;28;20052;-78
2021/06/28 12:12:02;;;;;;;2.75;2.53;;;31.00;46.00;;;;;;5088427;28;20436;-78
2021/06/28 12:14:54;;;;;;;3.33;2.92;;;31.00;45.30;;;;;;5088793;28;20101;-78
2021/06/28 12:17:21;;;;;;;3.30;2.83;;;31.50;41.40;;;;;;5088620;28;20020;-78
2021/06/28 12:19:55;;;;;;;2.50;2.30;;;32.50;40.40;;;;;;5088407;28;20062;-78
2021/06/28 12:22:29;;;;;;;3.20;2.90;;;33.60;39.80;;;;;;5088437;28;20119;-78
2021/06/28 12:24:56;;;;;;;3.28;2.97;;;34.80;35.30;;;;;;5088419;28;20031;-79
2021/06/28 12:27:26;;;;;;;3.63;2.80;;;36.20;37.20;;;;;;5088472;28;20032;-78
2021/06/28 12:29:52;;;;;;;3.00;2.72;;;37.00;36.00;;;;;;5088315;28;20074;-78
2021/06/28 12:32:23;;;;;;;3.30;3.00;;;37.10;36.10;;;;;;5088059;28;20450;-79
2021/06/28 12:34:55;;;;;;;3.97;2.95;;;36.00;36.10;;;;;;5088263;28;20053;-78
2021/06/28 12:37:29;;;;;;;3.13;2.80;;;36.50;35.60;;;;;;5088445;28;20110;-79
2021/06/28 12:40:15;;;;;;;4.72;2.80;;;37.70;33.50;;;;;;5088222;28;20024;-78
2021/06/28 12:42:44;;;;;;;2.60;2.40;;;38.40;33.50;;;;;;5088403;28;20455;-78
2021/06/28 12:45:12;;;;;;;3.22;2.92;;;37.50;34.50;;;;;;5087920;28;20319;-78
2021/06/28 12:47:38;;;;;;;3.28;2.78;;;37.30;35.60;;;;;;5088438;28;20537;-78
2021/06/28 12:50:04;;;;;;;3.92;2.83;;;37.60;32.30;;;;;;5088353;28;20085;-79